sensor_id;sensor_type;location;lat;lon;timestamp;P1;durP1;ratioP1;P2;durP2;ratioP2
34282;SDS011;20542;49.828;8.746;2022-08-21T00:01:25;5.95;;;3.55;;
34282;SDS011;20542;49.828;8.746;2022-08-21T00:03:53;5.93;;;3.63;;
34282;SDS011;20542;49.828;8.746;2022-08-21T00:08:46;4.73;;;3.40;;
34282;SDS011;20542;49.828;8.746;2022-08-21T00:11:14;8.70;;;3.63;;
34282;SDS011;20542;49.828;8.746;2022-08-21T00:13:40;5.75;;;4.10;;
34282;SDS011;20542;49.828;8.746;2022-08-21T00:16:06;5.43;;;4.03;;
34282;SDS011;20542;49.828;8.746;2022-08-21T00:18:32;5.95;;;4.30;;
34282;SDS011;20542;49.828;8.746;2022-08-21T00:20:57;6.72;;;4.03;;
34282;SDS011;20542;49.828;8.746;2022-08-21T00:23:23;5.72;;;3.80;;
34282;SDS011;20542;49.828;8.746;2022-08-21T00:25:48;12.55;;;4.28;;
34282;SDS011;20542;49.828;8.746;2022-08-21T00:28:14;10.63;;;3.90;;
34282;SDS011;20542;49.828;8.746;2022-08-21T00:30:40;6.47;;;3.72;;
34282;SDS011;20542;49.828;8.746;2022-08-21T00:33:07;5.82;;;3.75;;
34282;SDS011;20542;49.828;8.746;2022-08-21T00:35:36;7.55;;;4.50;;
34282;SDS011;20542;49.828;8.746;2022-08-21T00:38:03;8.05;;;4.15;;
34282;SDS011;20542;49.828;8.746;2022-08-21T00:40:37;4.95;;;3.63;;
34282;SDS011;20542;49.828;8.746;2022-08-21T00:43:09;6.03;;;4.00;;
34282;SDS011;20542;49.828;8.746;2022-08-21T00:45:36;7.00;;;4.78;;
34282;SDS011;20542;49.828;8.746;2022-08-21T00:48:03;7.22;;;3.88;;
34282;SDS011;20542;49.828;8.746;2022-08-21T00:50:29;7.50;;;3.80;;
34282;SDS011;20542;49.828;8.746;2022-08-21T00:52:58;7.05;;;4.28;;
34282;SDS011;20542;49.828;8.746;2022-08-21T00:55:26;9.10;;;4.28;;
34282;SDS011;20542;49.828;8.746;2022-08-21T00:57:54;12.52;;;3.65;;
34282;SDS011;20542;49.828;8.746;2022-08-21T01:00:23;8.95;;;4.13;;
34282;SDS011;20542;49.828;8.746;2022-08-21T01:02:58;5.63;;;4.13;;
34282;SDS011;20542;49.828;8.746;2022-08-21T01:05:26;6.95;;;4.25;;
34282;SDS011;20542;49.828;8.746;2022-08-21T01:07:53;7.70;;;3.88;;
34282;SDS011;20542;49.828;8.746;2022-08-21T01:10:21;8.15;;;3.95;;
34282;SDS011;20542;49.828;8.746;2022-08-21T01:12:48;6.03;;;4.30;;
34282;SDS011;20542;49.828;8.746;2022-08-21T01:15:16;10.15;;;4.63;;
34282;SDS011;20542;49.828;8.746;2022-08-21T01:17:42;7.80;;;3.83;;
34282;SDS011;20542;49.828;8.746;2022-08-21T01:20:09;8.48;;;4.93;;
34282;SDS011;20542;49.828;8.746;2022-08-21T01:22:36;6.20;;;4.25;;
34282;SDS011;20542;49.828;8.746;2022-08-21T01:25:06;8.50;;;4.00;;
34282;SDS011;20542;49.828;8.746;2022-08-21T01:27:33;8.18;;;4.82;;
34282;SDS011;20542;49.828;8.746;2022-08-21T01:30:08;7.68;;;3.97;;
34282;SDS011;20542;49.828;8.746;2022-08-21T01:32:39;9.75;;;4.57;;
34282;SDS011;20542;49.828;8.746;2022-08-21T01:35:05;6.00;;;3.58;;
34282;SDS011;20542;49.828;8.746;2022-08-21T01:37:32;5.00;;;3.75;;
34282;SDS011;20542;49.828;8.746;2022-08-21T01:39:58;6.13;;;4.18;;
34282;SDS011;20542;49.828;8.746;2022-08-21T01:42:23;7.47;;;4.45;;
34282;SDS011;20542;49.828;8.746;2022-08-21T01:44:49;8.32;;;4.07;;
34282;SDS011;20542;49.828;8.746;2022-08-21T01:47:15;7.18;;;4.20;;
34282;SDS011;20542;49.828;8.746;2022-08-21T01:49:41;8.15;;;4.05;;
34282;SDS011;20542;49.828;8.746;2022-08-21T01:52:07;7.85;;;4.35;;
34282;SDS011;20542;49.828;8.746;2022-08-21T01:54:33;8.57;;;4.40;;
34282;SDS011;20542;49.828;8.746;2022-08-21T01:56:59;5.83;;;4.33;;
34282;SDS011;20542;49.828;8.746;2022-08-21T01:59:26;6.40;;;4.38;;
34282;SDS011;20542;49.828;8.746;2022-08-21T02:01:52;5.03;;;4.10;;
34282;SDS011;20542;49.828;8.746;2022-08-21T02:04:21;6.82;;;4.22;;
34282;SDS011;20542;49.828;8.746;2022-08-21T02:06:47;6.95;;;4.20;;
34282;SDS011;20542;49.828;8.746;2022-08-21T02:09:13;5.97;;;4.50;;
34282;SDS011;20542;49.828;8.746;2022-08-21T02:11:40;15.88;;;4.43;;
34282;SDS011;20542;49.828;8.746;2022-08-21T02:14:10;8.60;;;4.28;;
34282;SDS011;20542;49.828;8.746;2022-08-21T02:16:38;6.10;;;4.50;;
34282;SDS011;20542;49.828;8.746;2022-08-21T02:19:04;6.57;;;4.00;;
34282;SDS011;20542;49.828;8.746;2022-08-21T02:21:30;8.27;;;4.25;;
34282;SDS011;20542;49.828;8.746;2022-08-21T02:23:56;10.15;;;4.97;;
34282;SDS011;20542;49.828;8.746;2022-08-21T02:26:22;9.10;;;4.38;;
34282;SDS011;20542;49.828;8.746;2022-08-21T02:28:47;6.65;;;4.43;;
34282;SDS011;20542;49.828;8.746;2022-08-21T02:31:13;6.70;;;4.32;;
34282;SDS011;20542;49.828;8.746;2022-08-21T02:33:39;8.30;;;4.47;;
34282;SDS011;20542;49.828;8.746;2022-08-21T02:36:05;6.72;;;4.18;;
34282;SDS011;20542;49.828;8.746;2022-08-21T02:38:33;6.53;;;4.43;;
34282;SDS011;20542;49.828;8.746;2022-08-21T02:41:03;6.55;;;4.43;;
34282;SDS011;20542;49.828;8.746;2022-08-21T02:43:30;6.22;;;4.43;;
34282;SDS011;20542;49.828;8.746;2022-08-21T02:45:56;9.80;;;4.20;;
34282;SDS011;20542;49.828;8.746;2022-08-21T02:48:24;6.63;;;4.47;;
34282;SDS011;20542;49.828;8.746;2022-08-21T02:50:52;7.43;;;4.25;;
34282;SDS011;20542;49.828;8.746;2022-08-21T02:53:22;7.13;;;5.13;;
34282;SDS011;20542;49.828;8.746;2022-08-21T02:55:49;8.77;;;4.60;;
34282;SDS011;20542;49.828;8.746;2022-08-21T02:58:17;8.50;;;4.78;;
34282;SDS011;20542;49.828;8.746;2022-08-21T03:00:44;10.93;;;4.78;;
34282;SDS011;20542;49.828;8.746;2022-08-21T03:03:10;9.52;;;4.97;;
34282;SDS011;20542;49.828;8.746;2022-08-21T03:05:37;9.02;;;4.75;;
34282;SDS011;20542;49.828;8.746;2022-08-21T03:08:03;7.32;;;5.15;;
34282;SDS011;20542;49.828;8.746;2022-08-21T03:10:34;9.25;;;4.78;;
34282;SDS011;20542;49.828;8.746;2022-08-21T03:13:01;10.00;;;5.13;;
34282;SDS011;20542;49.828;8.746;2022-08-21T03:15:28;8.68;;;4.70;;
34282;SDS011;20542;49.828;8.746;2022-08-21T03:17:54;11.90;;;4.22;;
34282;SDS011;20542;49.828;8.746;2022-08-21T03:20:21;13.05;;;5.15;;
34282;SDS011;20542;49.828;8.746;2022-08-21T03:22:48;5.00;;;3.97;;
34282;SDS011;20542;49.828;8.746;2022-08-21T03:25:15;6.67;;;4.43;;
34282;SDS011;20542;49.828;8.746;2022-08-21T03:27:41;5.53;;;4.35;;
34282;SDS011;20542;49.828;8.746;2022-08-21T03:30:06;6.05;;;4.05;;
34282;SDS011;20542;49.828;8.746;2022-08-21T03:32:33;8.88;;;4.25;;
34282;SDS011;20542;49.828;8.746;2022-08-21T03:37:26;7.20;;;4.57;;
34282;SDS011;20542;49.828;8.746;2022-08-21T03:39:52;10.20;;;4.93;;
34282;SDS011;20542;49.828;8.746;2022-08-21T03:42:18;9.38;;;4.50;;
34282;SDS011;20542;49.828;8.746;2022-08-21T03:44:44;7.05;;;4.82;;
34282;SDS011;20542;49.828;8.746;2022-08-21T03:47:09;6.05;;;4.53;;
34282;SDS011;20542;49.828;8.746;2022-08-21T03:49:35;7.60;;;4.68;;
34282;SDS011;20542;49.828;8.746;2022-08-21T03:52:01;8.40;;;5.10;;
34282;SDS011;20542;49.828;8.746;2022-08-21T03:54:27;7.50;;;4.93;;
34282;SDS011;20542;49.828;8.746;2022-08-21T03:56:53;9.23;;;4.72;;
34282;SDS011;20542;49.828;8.746;2022-08-21T03:59:19;7.93;;;4.70;;
34282;SDS011;20542;49.828;8.746;2022-08-21T04:01:59;7.03;;;3.88;;
34282;SDS011;20542;49.828;8.746;2022-08-21T04:04:26;10.75;;;4.50;;
34282;SDS011;20542;49.828;8.746;2022-08-21T04:06:53;13.48;;;4.53;;
34282;SDS011;20542;49.828;8.746;2022-08-21T04:09:19;5.80;;;4.47;;
34282;SDS011;20542;49.828;8.746;2022-08-21T04:11:45;8.68;;;4.53;;
34282;SDS011;20542;49.828;8.746;2022-08-21T04:14:12;9.07;;;5.13;;
34282;SDS011;20542;49.828;8.746;2022-08-21T04:19:04;11.90;;;4.68;;
34282;SDS011;20542;49.828;8.746;2022-08-21T04:21:30;6.80;;;4.82;;
34282;SDS011;20542;49.828;8.746;2022-08-21T04:23:56;12.48;;;6.22;;
34282;SDS011;20542;49.828;8.746;2022-08-21T04:26:23;9.30;;;4.65;;
34282;SDS011;20542;49.828;8.746;2022-08-21T04:28:48;10.30;;;4.30;;
34282;SDS011;20542;49.828;8.746;2022-08-21T04:31:14;7.47;;;4.15;;
34282;SDS011;20542;49.828;8.746;2022-08-21T04:33:40;8.40;;;4.85;;
34282;SDS011;20542;49.828;8.746;2022-08-21T04:36:05;7.10;;;4.57;;
34282;SDS011;20542;49.828;8.746;2022-08-21T04:38:32;12.05;;;4.78;;
34282;SDS011;20542;49.828;8.746;2022-08-21T04:40:57;8.73;;;5.50;;
34282;SDS011;20542;49.828;8.746;2022-08-21T04:43:23;9.32;;;5.32;;
34282;SDS011;20542;49.828;8.746;2022-08-21T04:45:49;12.20;;;4.93;;
34282;SDS011;20542;49.828;8.746;2022-08-21T04:53:14;9.82;;;4.70;;
34282;SDS011;20542;49.828;8.746;2022-08-21T04:56:06;9.00;;;4.93;;
34282;SDS011;20542;49.828;8.746;2022-08-21T04:58:35;7.22;;;4.30;;
34282;SDS011;20542;49.828;8.746;2022-08-21T05:01:02;8.10;;;4.90;;
34282;SDS011;20542;49.828;8.746;2022-08-21T05:03:29;6.32;;;3.92;;
34282;SDS011;20542;49.828;8.746;2022-08-21T05:05:58;5.28;;;4.18;;
34282;SDS011;20542;49.828;8.746;2022-08-21T05:08:24;5.65;;;4.18;;
34282;SDS011;20542;49.828;8.746;2022-08-21T05:13:16;7.57;;;4.53;;
34282;SDS011;20542;49.828;8.746;2022-08-21T05:15:42;8.40;;;3.95;;
34282;SDS011;20542;49.828;8.746;2022-08-21T05:18:08;6.82;;;4.47;;
34282;SDS011;20542;49.828;8.746;2022-08-21T05:20:34;11.45;;;4.60;;
34282;SDS011;20542;49.828;8.746;2022-08-21T05:23:01;7.97;;;4.30;;
34282;SDS011;20542;49.828;8.746;2022-08-21T05:25:35;8.73;;;4.60;;
34282;SDS011;20542;49.828;8.746;2022-08-21T05:28:01;8.35;;;4.20;;
34282;SDS011;20542;49.828;8.746;2022-08-21T05:30:27;6.03;;;4.25;;
34282;SDS011;20542;49.828;8.746;2022-08-21T05:32:59;8.20;;;4.35;;
34282;SDS011;20542;49.828;8.746;2022-08-21T05:35:26;6.10;;;4.32;;
34282;SDS011;20542;49.828;8.746;2022-08-21T05:37:53;8.07;;;4.90;;
34282;SDS011;20542;49.828;8.746;2022-08-21T05:40:18;9.65;;;4.32;;
34282;SDS011;20542;49.828;8.746;2022-08-21T05:42:44;10.88;;;4.85;;
34282;SDS011;20542;49.828;8.746;2022-08-21T05:45:10;6.13;;;3.60;;
34282;SDS011;20542;49.828;8.746;2022-08-21T05:47:36;5.53;;;4.05;;
34282;SDS011;20542;49.828;8.746;2022-08-21T05:50:01;6.93;;;3.92;;
34282;SDS011;20542;49.828;8.746;2022-08-21T05:52:28;5.78;;;3.67;;
34282;SDS011;20542;49.828;8.746;2022-08-21T05:54:53;7.60;;;3.90;;
34282;SDS011;20542;49.828;8.746;2022-08-21T05:57:20;7.68;;;4.10;;
34282;SDS011;20542;49.828;8.746;2022-08-21T05:59:46;8.37;;;3.47;;
34282;SDS011;20542;49.828;8.746;2022-08-21T06:02:11;6.07;;;3.63;;
34282;SDS011;20542;49.828;8.746;2022-08-21T06:04:37;7.35;;;3.83;;
34282;SDS011;20542;49.828;8.746;2022-08-21T06:07:04;8.60;;;3.97;;
34282;SDS011;20542;49.828;8.746;2022-08-21T06:09:30;7.35;;;3.67;;
34282;SDS011;20542;49.828;8.746;2022-08-21T06:11:56;7.68;;;4.18;;
34282;SDS011;20542;49.828;8.746;2022-08-21T06:14:22;7.88;;;4.13;;
34282;SDS011;20542;49.828;8.746;2022-08-21T06:16:48;5.68;;;3.50;;
34282;SDS011;20542;49.828;8.746;2022-08-21T06:19:13;9.63;;;3.58;;
34282;SDS011;20542;49.828;8.746;2022-08-21T06:21:39;5.30;;;3.65;;
34282;SDS011;20542;49.828;8.746;2022-08-21T06:24:04;7.22;;;3.25;;
34282;SDS011;20542;49.828;8.746;2022-08-21T06:28:57;6.53;;;3.27;;
34282;SDS011;20542;49.828;8.746;2022-08-21T06:31:24;7.53;;;3.60;;
34282;SDS011;20542;49.828;8.746;2022-08-21T06:33:51;7.65;;;3.45;;
34282;SDS011;20542;49.828;8.746;2022-08-21T06:36:18;6.05;;;3.30;;
34282;SDS011;20542;49.828;8.746;2022-08-21T06:38:45;8.02;;;4.05;;
34282;SDS011;20542;49.828;8.746;2022-08-21T06:41:11;9.45;;;3.75;;
34282;SDS011;20542;49.828;8.746;2022-08-21T06:43:37;6.78;;;3.50;;
34282;SDS011;20542;49.828;8.746;2022-08-21T06:46:02;6.75;;;3.75;;
34282;SDS011;20542;49.828;8.746;2022-08-21T06:48:28;8.77;;;2.97;;
34282;SDS011;20542;49.828;8.746;2022-08-21T06:50:55;8.43;;;3.30;;
34282;SDS011;20542;49.828;8.746;2022-08-21T06:53:21;8.80;;;3.35;;
34282;SDS011;20542;49.828;8.746;2022-08-21T06:55:47;9.50;;;3.95;;
34282;SDS011;20542;49.828;8.746;2022-08-21T06:58:13;8.87;;;4.00;;
34282;SDS011;20542;49.828;8.746;2022-08-21T07:00:40;6.57;;;3.90;;
34282;SDS011;20542;49.828;8.746;2022-08-21T07:03:07;8.07;;;4.32;;
34282;SDS011;20542;49.828;8.746;2022-08-21T07:05:41;10.27;;;5.03;;
34282;SDS011;20542;49.828;8.746;2022-08-21T07:08:06;8.30;;;4.35;;
34282;SDS011;20542;49.828;8.746;2022-08-21T07:10:32;9.70;;;4.78;;
34282;SDS011;20542;49.828;8.746;2022-08-21T07:12:57;12.05;;;5.05;;
34282;SDS011;20542;49.828;8.746;2022-08-21T07:15:23;7.93;;;4.22;;
34282;SDS011;20542;49.828;8.746;2022-08-21T07:17:48;8.27;;;4.47;;
34282;SDS011;20542;49.828;8.746;2022-08-21T07:20:14;9.75;;;4.72;;
34282;SDS011;20542;49.828;8.746;2022-08-21T07:22:40;9.52;;;4.80;;
34282;SDS011;20542;49.828;8.746;2022-08-21T07:25:07;10.05;;;4.40;;
34282;SDS011;20542;49.828;8.746;2022-08-21T07:27:33;6.33;;;4.70;;
34282;SDS011;20542;49.828;8.746;2022-08-21T07:29:59;10.25;;;4.68;;
34282;SDS011;20542;49.828;8.746;2022-08-21T07:32:24;7.82;;;5.07;;
34282;SDS011;20542;49.828;8.746;2022-08-21T07:34:50;8.82;;;4.53;;
34282;SDS011;20542;49.828;8.746;2022-08-21T07:37:15;9.02;;;5.20;;
34282;SDS011;20542;49.828;8.746;2022-08-21T07:39:41;7.40;;;4.82;;
34282;SDS011;20542;49.828;8.746;2022-08-21T07:42:07;7.60;;;4.63;;
34282;SDS011;20542;49.828;8.746;2022-08-21T07:44:32;12.23;;;5.20;;
34282;SDS011;20542;49.828;8.746;2022-08-21T07:46:59;10.07;;;4.95;;
34282;SDS011;20542;49.828;8.746;2022-08-21T07:49:26;8.40;;;4.72;;
34282;SDS011;20542;49.828;8.746;2022-08-21T07:51:52;6.47;;;4.70;;
34282;SDS011;20542;49.828;8.746;2022-08-21T07:54:17;11.45;;;4.70;;
34282;SDS011;20542;49.828;8.746;2022-08-21T07:56:43;12.15;;;4.63;;
34282;SDS011;20542;49.828;8.746;2022-08-21T07:59:08;9.13;;;4.93;;
34282;SDS011;20542;49.828;8.746;2022-08-21T08:01:34;8.48;;;5.00;;
34282;SDS011;20542;49.828;8.746;2022-08-21T08:04:00;13.63;;;4.55;;
34282;SDS011;20542;49.828;8.746;2022-08-21T08:06:25;8.75;;;4.10;;
34282;SDS011;20542;49.828;8.746;2022-08-21T08:08:51;9.00;;;4.85;;
34282;SDS011;20542;49.828;8.746;2022-08-21T08:11:17;10.23;;;4.38;;
34282;SDS011;20542;49.828;8.746;2022-08-21T08:13:47;8.25;;;4.72;;
34282;SDS011;20542;49.828;8.746;2022-08-21T08:16:15;9.25;;;3.95;;
34282;SDS011;20542;49.828;8.746;2022-08-21T08:18:41;12.82;;;3.88;;
34282;SDS011;20542;49.828;8.746;2022-08-21T08:21:07;7.60;;;3.28;;
34282;SDS011;20542;49.828;8.746;2022-08-21T08:23:33;7.47;;;4.53;;
34282;SDS011;20542;49.828;8.746;2022-08-21T08:25:59;9.82;;;4.45;;
34282;SDS011;20542;49.828;8.746;2022-08-21T08:28:27;10.60;;;5.00;;
34282;SDS011;20542;49.828;8.746;2022-08-21T08:30:53;6.85;;;4.35;;
34282;SDS011;20542;49.828;8.746;2022-08-21T08:33:19;7.45;;;4.63;;
34282;SDS011;20542;49.828;8.746;2022-08-21T08:35:46;6.00;;;4.30;;
34282;SDS011;20542;49.828;8.746;2022-08-21T08:38:14;9.52;;;4.60;;
34282;SDS011;20542;49.828;8.746;2022-08-21T08:40:54;9.57;;;4.35;;
34282;SDS011;20542;49.828;8.746;2022-08-21T08:43:37;10.35;;;3.88;;
34282;SDS011;20542;49.828;8.746;2022-08-21T08:46:04;8.82;;;4.00;;
34282;SDS011;20542;49.828;8.746;2022-08-21T08:48:47;6.47;;;3.80;;
34282;SDS011;20542;49.828;8.746;2022-08-21T08:51:29;8.68;;;3.60;;
34282;SDS011;20542;49.828;8.746;2022-08-21T08:54:09;9.80;;;3.97;;
34282;SDS011;20542;49.828;8.746;2022-08-21T08:56:40;6.38;;;3.13;;
34282;SDS011;20542;49.828;8.746;2022-08-21T09:01:43;5.25;;;2.83;;
34282;SDS011;20542;49.828;8.746;2022-08-21T09:04:09;6.75;;;3.40;;
34282;SDS011;20542;49.828;8.746;2022-08-21T09:06:41;13.18;;;3.55;;
34282;SDS011;20542;49.828;8.746;2022-08-21T09:09:38;9.73;;;3.97;;
34282;SDS011;20542;49.828;8.746;2022-08-21T09:12:25;6.80;;;3.03;;
34282;SDS011;20542;49.828;8.746;2022-08-21T09:15:36;7.38;;;3.30;;
34282;SDS011;20542;49.828;8.746;2022-08-21T09:21:06;9.80;;;3.25;;
34282;SDS011;20542;49.828;8.746;2022-08-21T09:26:29;6.93;;;3.35;;
34282;SDS011;20542;49.828;8.746;2022-08-21T09:29:12;8.05;;;3.45;;
34282;SDS011;20542;49.828;8.746;2022-08-21T09:31:38;6.03;;;3.72;;
34282;SDS011;20542;49.828;8.746;2022-08-21T09:34:07;6.55;;;3.50;;
34282;SDS011;20542;49.828;8.746;2022-08-21T09:39:12;6.25;;;3.03;;
34282;SDS011;20542;49.828;8.746;2022-08-21T09:41:49;6.97;;;3.10;;
34282;SDS011;20542;49.828;8.746;2022-08-21T09:44:24;5.18;;;2.80;;
34282;SDS011;20542;49.828;8.746;2022-08-21T09:46:55;5.95;;;2.95;;
34282;SDS011;20542;49.828;8.746;2022-08-21T09:49:28;4.53;;;2.80;;
34282;SDS011;20542;49.828;8.746;2022-08-21T09:51:55;11.07;;;3.70;;
34282;SDS011;20542;49.828;8.746;2022-08-21T09:54:24;5.03;;;2.90;;
34282;SDS011;20542;49.828;8.746;2022-08-21T09:56:56;6.15;;;2.67;;
34282;SDS011;20542;49.828;8.746;2022-08-21T09:59:43;8.50;;;3.03;;
34282;SDS011;20542;49.828;8.746;2022-08-21T10:02:28;5.40;;;2.85;;
34282;SDS011;20542;49.828;8.746;2022-08-21T10:05:00;7.97;;;2.85;;
34282;SDS011;20542;49.828;8.746;2022-08-21T10:07:30;8.13;;;3.30;;
34282;SDS011;20542;49.828;8.746;2022-08-21T10:12:28;8.00;;;3.00;;
34282;SDS011;20542;49.828;8.746;2022-08-21T10:20:20;5.57;;;2.80;;
34282;SDS011;20542;49.828;8.746;2022-08-21T10:25:40;6.18;;;2.75;;
34282;SDS011;20542;49.828;8.746;2022-08-21T10:28:17;4.22;;;2.33;;
34282;SDS011;20542;49.828;8.746;2022-08-21T10:36:14;5.38;;;2.45;;
34282;SDS011;20542;49.828;8.746;2022-08-21T10:38:49;6.35;;;2.60;;
34282;SDS011;20542;49.828;8.746;2022-08-21T10:41:27;7.50;;;2.95;;
34282;SDS011;20542;49.828;8.746;2022-08-21T10:46:45;5.88;;;2.83;;
34282;SDS011;20542;49.828;8.746;2022-08-21T10:54:37;5.63;;;2.33;;
34282;SDS011;20542;49.828;8.746;2022-08-21T10:59:42;5.70;;;2.38;;
34282;SDS011;20542;49.828;8.746;2022-08-21T11:02:19;4.03;;;2.00;;
34282;SDS011;20542;49.828;8.746;2022-08-21T11:04:54;6.40;;;2.60;;
34282;SDS011;20542;49.828;8.746;2022-08-21T11:07:28;4.57;;;2.25;;
34282;SDS011;20542;49.828;8.746;2022-08-21T11:10:00;9.70;;;6.38;;
34282;SDS011;20542;49.828;8.746;2022-08-21T11:12:41;11.73;;;3.30;;
34282;SDS011;20542;49.828;8.746;2022-08-21T11:18:13;7.53;;;2.20;;
34282;SDS011;20542;49.828;8.746;2022-08-21T11:23:53;7.05;;;2.28;;
34282;SDS011;20542;49.828;8.746;2022-08-21T11:26:39;3.65;;;1.95;;
34282;SDS011;20542;49.828;8.746;2022-08-21T11:43:20;4.22;;;1.95;;
34282;SDS011;20542;49.828;8.746;2022-08-21T11:45:56;7.82;;;2.80;;
34282;SDS011;20542;49.828;8.746;2022-08-21T11:51:13;4.60;;;2.08;;
34282;SDS011;20542;49.828;8.746;2022-08-21T11:53:48;3.47;;;2.15;;
34282;SDS011;20542;49.828;8.746;2022-08-21T11:56:28;4.13;;;2.00;;
34282;SDS011;20542;49.828;8.746;2022-08-21T11:59:02;6.05;;;2.10;;
34282;SDS011;20542;49.828;8.746;2022-08-21T12:01:35;5.53;;;2.55;;
34282;SDS011;20542;49.828;8.746;2022-08-21T12:04:08;8.02;;;2.38;;
34282;SDS011;20542;49.828;8.746;2022-08-21T12:06:42;9.38;;;2.50;;
34282;SDS011;20542;49.828;8.746;2022-08-21T12:11:50;3.72;;;2.25;;
34282;SDS011;20542;49.828;8.746;2022-08-21T12:14:39;7.90;;;2.30;;
34282;SDS011;20542;49.828;8.746;2022-08-21T12:17:17;5.03;;;2.17;;
34282;SDS011;20542;49.828;8.746;2022-08-21T12:19:44;4.72;;;1.90;;
34282;SDS011;20542;49.828;8.746;2022-08-21T12:22:21;5.82;;;2.88;;
34282;SDS011;20542;49.828;8.746;2022-08-21T12:24:49;4.65;;;2.22;;
34282;SDS011;20542;49.828;8.746;2022-08-21T12:27:20;8.45;;;2.65;;
34282;SDS011;20542;49.828;8.746;2022-08-21T12:30:06;3.78;;;2.28;;
34282;SDS011;20542;49.828;8.746;2022-08-21T12:32:58;7.10;;;2.40;;
34282;SDS011;20542;49.828;8.746;2022-08-21T12:35:31;3.85;;;1.95;;
34282;SDS011;20542;49.828;8.746;2022-08-21T12:40:45;7.60;;;2.35;;
34282;SDS011;20542;49.828;8.746;2022-08-21T12:43:21;5.05;;;2.33;;
34282;SDS011;20542;49.828;8.746;2022-08-21T12:46:03;4.70;;;1.92;;
34282;SDS011;20542;49.828;8.746;2022-08-21T12:48:44;4.77;;;2.00;;
34282;SDS011;20542;49.828;8.746;2022-08-21T12:51:17;3.97;;;2.10;;
34282;SDS011;20542;49.828;8.746;2022-08-21T12:53:50;6.25;;;2.30;;
34282;SDS011;20542;49.828;8.746;2022-08-21T12:56:21;5.07;;;2.58;;
34282;SDS011;20542;49.828;8.746;2022-08-21T12:58:53;4.60;;;2.10;;
34282;SDS011;20542;49.828;8.746;2022-08-21T13:01:34;4.65;;;2.28;;
34282;SDS011;20542;49.828;8.746;2022-08-21T13:04:06;5.18;;;1.90;;
34282;SDS011;20542;49.828;8.746;2022-08-21T13:06:41;4.57;;;2.10;;
34282;SDS011;20542;49.828;8.746;2022-08-21T13:09:11;4.50;;;2.33;;
34282;SDS011;20542;49.828;8.746;2022-08-21T13:11:40;4.07;;;2.40;;
34282;SDS011;20542;49.828;8.746;2022-08-21T13:14:13;3.53;;;1.65;;
34282;SDS011;20542;49.828;8.746;2022-08-21T13:17:00;5.18;;;1.80;;
34282;SDS011;20542;49.828;8.746;2022-08-21T13:19:29;5.18;;;1.83;;
34282;SDS011;20542;49.828;8.746;2022-08-21T13:21:54;3.80;;;1.60;;
34282;SDS011;20542;49.828;8.746;2022-08-21T13:24:21;2.87;;;1.77;;
34282;SDS011;20542;49.828;8.746;2022-08-21T13:27:16;8.63;;;2.60;;
34282;SDS011;20542;49.828;8.746;2022-08-21T13:30:04;4.47;;;1.88;;
34282;SDS011;20542;49.828;8.746;2022-08-21T13:32:37;2.95;;;1.90;;
34282;SDS011;20542;49.828;8.746;2022-08-21T13:35:09;7.18;;;2.50;;
34282;SDS011;20542;49.828;8.746;2022-08-21T13:37:38;5.07;;;2.20;;
34282;SDS011;20542;49.828;8.746;2022-08-21T13:40:06;6.05;;;1.80;;
34282;SDS011;20542;49.828;8.746;2022-08-21T13:42:37;5.82;;;2.28;;
34282;SDS011;20542;49.828;8.746;2022-08-21T13:45:10;7.05;;;2.40;;
34282;SDS011;20542;49.828;8.746;2022-08-21T13:47:38;5.70;;;2.13;;
34282;SDS011;20542;49.828;8.746;2022-08-21T13:50:04;5.90;;;2.40;;
34282;SDS011;20542;49.828;8.746;2022-08-21T13:52:32;6.45;;;2.70;;
34282;SDS011;20542;49.828;8.746;2022-08-21T13:54:59;3.83;;;2.07;;
34282;SDS011;20542;49.828;8.746;2022-08-21T13:57:33;3.95;;;1.77;;
34282;SDS011;20542;49.828;8.746;2022-08-21T14:00:09;2.72;;;1.85;;
34282;SDS011;20542;49.828;8.746;2022-08-21T14:02:37;4.57;;;1.88;;
34282;SDS011;20542;49.828;8.746;2022-08-21T14:05:05;3.25;;;1.85;;
34282;SDS011;20542;49.828;8.746;2022-08-21T14:07:36;5.60;;;1.55;;
34282;SDS011;20542;49.828;8.746;2022-08-21T14:10:06;6.25;;;2.10;;
34282;SDS011;20542;49.828;8.746;2022-08-21T14:12:46;6.32;;;1.90;;
34282;SDS011;20542;49.828;8.746;2022-08-21T14:15:42;4.38;;;2.03;;
34282;SDS011;20542;49.828;8.746;2022-08-21T14:18:10;4.60;;;1.87;;
34282;SDS011;20542;49.828;8.746;2022-08-21T14:20:39;4.30;;;1.77;;
34282;SDS011;20542;49.828;8.746;2022-08-21T14:23:04;2.55;;;1.67;;
34282;SDS011;20542;49.828;8.746;2022-08-21T14:25:36;6.77;;;2.10;;
34282;SDS011;20542;49.828;8.746;2022-08-21T14:30:40;2.47;;;1.67;;
34282;SDS011;20542;49.828;8.746;2022-08-21T14:33:11;5.60;;;2.08;;
34282;SDS011;20542;49.828;8.746;2022-08-21T14:35:50;4.60;;;1.90;;
34282;SDS011;20542;49.828;8.746;2022-08-21T14:38:17;7.32;;;1.85;;
34282;SDS011;20542;49.828;8.746;2022-08-21T14:40:47;2.20;;;1.58;;
34282;SDS011;20542;49.828;8.746;2022-08-21T14:43:18;5.18;;;2.05;;
34282;SDS011;20542;49.828;8.746;2022-08-21T14:45:44;3.03;;;1.67;;
34282;SDS011;20542;49.828;8.746;2022-08-21T14:48:10;4.40;;;1.73;;
34282;SDS011;20542;49.828;8.746;2022-08-21T14:50:36;6.27;;;2.03;;
34282;SDS011;20542;49.828;8.746;2022-08-21T14:53:02;4.20;;;1.83;;
34282;SDS011;20542;49.828;8.746;2022-08-21T14:55:29;4.50;;;1.77;;
34282;SDS011;20542;49.828;8.746;2022-08-21T14:57:55;3.80;;;1.73;;
34282;SDS011;20542;49.828;8.746;2022-08-21T15:00:22;4.88;;;2.13;;
34282;SDS011;20542;49.828;8.746;2022-08-21T15:02:50;5.15;;;1.90;;
34282;SDS011;20542;49.828;8.746;2022-08-21T15:05:16;3.53;;;1.60;;
34282;SDS011;20542;49.828;8.746;2022-08-21T15:07:42;7.30;;;2.22;;
34282;SDS011;20542;49.828;8.746;2022-08-21T15:10:09;4.07;;;1.70;;
34282;SDS011;20542;49.828;8.746;2022-08-21T15:12:35;3.70;;;1.30;;
34282;SDS011;20542;49.828;8.746;2022-08-21T15:15:02;5.90;;;2.17;;
34282;SDS011;20542;49.828;8.746;2022-08-21T15:17:30;2.92;;;1.45;;
34282;SDS011;20542;49.828;8.746;2022-08-21T15:19:55;5.68;;;1.88;;
34282;SDS011;20542;49.828;8.746;2022-08-21T15:22:21;4.80;;;2.10;;
34282;SDS011;20542;49.828;8.746;2022-08-21T15:24:47;3.28;;;1.52;;
34282;SDS011;20542;49.828;8.746;2022-08-21T15:27:12;6.67;;;1.80;;
34282;SDS011;20542;49.828;8.746;2022-08-21T15:29:41;3.35;;;1.70;;
34282;SDS011;20542;49.828;8.746;2022-08-21T15:32:17;5.47;;;1.63;;
34282;SDS011;20542;49.828;8.746;2022-08-21T15:34:47;3.95;;;2.03;;
34282;SDS011;20542;49.828;8.746;2022-08-21T15:37:13;5.25;;;2.00;;
34282;SDS011;20542;49.828;8.746;2022-08-21T15:39:39;4.90;;;1.83;;
34282;SDS011;20542;49.828;8.746;2022-08-21T15:42:04;3.80;;;1.77;;
34282;SDS011;20542;49.828;8.746;2022-08-21T15:44:30;4.65;;;2.03;;
34282;SDS011;20542;49.828;8.746;2022-08-21T15:46:56;4.43;;;1.88;;
34282;SDS011;20542;49.828;8.746;2022-08-21T15:49:23;2.83;;;1.70;;
34282;SDS011;20542;49.828;8.746;2022-08-21T15:51:49;5.82;;;2.22;;
34282;SDS011;20542;49.828;8.746;2022-08-21T15:54:14;5.40;;;1.77;;
34282;SDS011;20542;49.828;8.746;2022-08-21T15:56:40;4.80;;;1.70;;
34282;SDS011;20542;49.828;8.746;2022-08-21T15:59:13;5.93;;;1.88;;
34282;SDS011;20542;49.828;8.746;2022-08-21T16:01:41;4.22;;;1.52;;
34282;SDS011;20542;49.828;8.746;2022-08-21T16:04:08;4.63;;;1.83;;
34282;SDS011;20542;49.828;8.746;2022-08-21T16:06:34;3.53;;;1.75;;
34282;SDS011;20542;49.828;8.746;2022-08-21T16:09:00;4.32;;;1.65;;
34282;SDS011;20542;49.828;8.746;2022-08-21T16:11:26;2.22;;;1.67;;
34282;SDS011;20542;49.828;8.746;2022-08-21T16:13:53;2.40;;;1.65;;
34282;SDS011;20542;49.828;8.746;2022-08-21T16:16:20;2.47;;;1.55;;
34282;SDS011;20542;49.828;8.746;2022-08-21T16:18:47;3.00;;;1.35;;
34282;SDS011;20542;49.828;8.746;2022-08-21T16:21:14;2.63;;;1.70;;
34282;SDS011;20542;49.828;8.746;2022-08-21T16:23:40;5.17;;;1.83;;